sensor_id;sensor_type;location;lat;lon;timestamp;P1;durP1;ratioP1;P2;durP2;ratioP2
11699;SDS011;5906;51.660;6.674;2023-04-15T00:01:50;10.90;;;7.73;;
11699;SDS011;5906;51.660;6.674;2023-04-15T00:04:18;14.00;;;10.60;;
11699;SDS011;5906;51.660;6.674;2023-04-15T00:06:49;15.67;;;8.50;;
11699;SDS011;5906;51.660;6.674;2023-04-15T00:09:18;12.77;;;9.23;;
11699;SDS011;5906;51.660;6.674;2023-04-15T00:11:46;13.67;;;8.73;;
11699;SDS011;5906;51.660;6.674;2023-04-15T00:14:13;12.17;;;9.07;;
11699;SDS011;5906;51.660;6.674;2023-04-15T00:16:41;27.93;;;17.70;;
11699;SDS011;5906;51.660;6.674;2023-04-15T00:19:08;21.07;;;13.17;;
11699;SDS011;5906;51.660;6.674;2023-04-15T00:21:35;31.10;;;18.60;;
11699;SDS011;5906;51.660;6.674;2023-04-15T00:24:02;24.53;;;14.77;;
11699;SDS011;5906;51.660;6.674;2023-04-15T00:26:29;17.50;;;10.57;;
11699;SDS011;5906;51.660;6.674;2023-04-15T00:28:56;33.30;;;22.43;;
11699;SDS011;5906;51.660;6.674;2023-04-15T00:31:23;27.70;;;17.03;;
11699;SDS011;5906;51.660;6.674;2023-04-15T00:33:51;17.57;;;8.77;;
11699;SDS011;5906;51.660;6.674;2023-04-15T00:36:18;22.10;;;12.73;;
11699;SDS011;5906;51.660;6.674;2023-04-15T00:38:45;23.37;;;17.40;;
11699;SDS011;5906;51.660;6.674;2023-04-15T00:41:12;48.40;;;24.30;;
11699;SDS011;5906;51.660;6.674;2023-04-15T00:43:39;15.20;;;11.73;;
11699;SDS011;5906;51.660;6.674;2023-04-15T00:46:06;21.37;;;12.23;;
11699;SDS011;5906;51.660;6.674;2023-04-15T00:48:36;13.57;;;9.60;;
11699;SDS011;5906;51.660;6.674;2023-04-15T00:51:04;13.03;;;9.27;;
11699;SDS011;5906;51.660;6.674;2023-04-15T00:53:32;12.10;;;9.40;;
11699;SDS011;5906;51.660;6.674;2023-04-15T00:55:59;11.30;;;8.77;;
11699;SDS011;5906;51.660;6.674;2023-04-15T00:58:26;13.50;;;7.83;;
11699;SDS011;5906;51.660;6.674;2023-04-15T01:00:55;19.07;;;8.67;;
11699;SDS011;5906;51.660;6.674;2023-04-15T01:03:23;19.10;;;9.10;;
11699;SDS011;5906;51.660;6.674;2023-04-15T01:05:50;41.63;;;17.47;;
11699;SDS011;5906;51.660;6.674;2023-04-15T01:08:29;15.03;;;8.90;;
11699;SDS011;5906;51.660;6.674;2023-04-15T01:10:57;16.73;;;9.10;;
11699;SDS011;5906;51.660;6.674;2023-04-15T01:13:26;21.97;;;14.60;;
11699;SDS011;5906;51.660;6.674;2023-04-15T01:15:55;44.53;;;18.37;;
11699;SDS011;5906;51.660;6.674;2023-04-15T01:18:22;16.90;;;9.30;;
11699;SDS011;5906;51.660;6.674;2023-04-15T01:20:50;36.10;;;18.37;;
11699;SDS011;5906;51.660;6.674;2023-04-15T01:23:17;44.33;;;24.50;;
11699;SDS011;5906;51.660;6.674;2023-04-15T01:25:44;112.20;;;53.77;;
11699;SDS011;5906;51.660;6.674;2023-04-15T01:28:13;34.87;;;18.03;;
11699;SDS011;5906;51.660;6.674;2023-04-15T01:30:39;42.03;;;19.20;;
11699;SDS011;5906;51.660;6.674;2023-04-15T01:33:06;38.90;;;18.33;;
11699;SDS011;5906;51.660;6.674;2023-04-15T01:35:33;19.40;;;11.23;;
11699;SDS011;5906;51.660;6.674;2023-04-15T01:38:07;16.37;;;11.33;;
11699;SDS011;5906;51.660;6.674;2023-04-15T01:40:35;16.97;;;8.97;;
11699;SDS011;5906;51.660;6.674;2023-04-15T01:43:02;19.13;;;10.50;;
11699;SDS011;5906;51.660;6.674;2023-04-15T01:45:29;37.87;;;19.87;;
11699;SDS011;5906;51.660;6.674;2023-04-15T01:47:56;48.53;;;23.60;;
11699;SDS011;5906;51.660;6.674;2023-04-15T01:50:23;34.37;;;16.97;;
11699;SDS011;5906;51.660;6.674;2023-04-15T01:52:51;40.00;;;17.80;;
11699;SDS011;5906;51.660;6.674;2023-04-15T01:55:18;31.53;;;15.57;;
11699;SDS011;5906;51.660;6.674;2023-04-15T01:57:45;15.07;;;10.20;;
11699;SDS011;5906;51.660;6.674;2023-04-15T02:00:12;30.00;;;13.30;;
11699;SDS011;5906;51.660;6.674;2023-04-15T02:02:40;22.97;;;12.83;;
11699;SDS011;5906;51.660;6.674;2023-04-15T02:05:07;15.40;;;9.27;;
11699;SDS011;5906;51.660;6.674;2023-04-15T02:07:34;12.90;;;9.00;;
11699;SDS011;5906;51.660;6.674;2023-04-15T02:10:02;18.60;;;10.33;;
11699;SDS011;5906;51.660;6.674;2023-04-15T02:12:29;12.73;;;9.27;;
11699;SDS011;5906;51.660;6.674;2023-04-15T02:14:56;18.90;;;12.23;;
11699;SDS011;5906;51.660;6.674;2023-04-15T02:17:23;22.20;;;12.83;;
11699;SDS011;5906;51.660;6.674;2023-04-15T02:19:50;11.63;;;8.57;;
11699;SDS011;5906;51.660;6.674;2023-04-15T02:22:17;11.00;;;8.60;;
11699;SDS011;5906;51.660;6.674;2023-04-15T02:24:44;11.53;;;9.13;;
11699;SDS011;5906;51.660;6.674;2023-04-15T02:27:15;11.70;;;8.93;;
11699;SDS011;5906;51.660;6.674;2023-04-15T02:29:45;13.47;;;8.43;;
11699;SDS011;5906;51.660;6.674;2023-04-15T02:32:12;12.00;;;9.30;;
11699;SDS011;5906;51.660;6.674;2023-04-15T02:34:40;15.10;;;10.60;;
11699;SDS011;5906;51.660;6.674;2023-04-15T02:37:09;17.10;;;10.67;;
11699;SDS011;5906;51.660;6.674;2023-04-15T02:39:37;21.33;;;13.20;;
11699;SDS011;5906;51.660;6.674;2023-04-15T02:42:04;26.03;;;15.03;;
11699;SDS011;5906;51.660;6.674;2023-04-15T02:44:31;20.17;;;13.47;;
11699;SDS011;5906;51.660;6.674;2023-04-15T02:47:00;19.40;;;13.30;;
11699;SDS011;5906;51.660;6.674;2023-04-15T02:49:27;13.10;;;10.27;;
11699;SDS011;5906;51.660;6.674;2023-04-15T02:51:56;13.17;;;9.47;;
11699;SDS011;5906;51.660;6.674;2023-04-15T02:54:23;12.87;;;8.83;;
11699;SDS011;5906;51.660;6.674;2023-04-15T02:56:51;12.53;;;8.53;;
11699;SDS011;5906;51.660;6.674;2023-04-15T02:59:20;15.07;;;9.40;;
11699;SDS011;5906;51.660;6.674;2023-04-15T03:01:47;13.57;;;8.43;;
11699;SDS011;5906;51.660;6.674;2023-04-15T03:04:14;18.47;;;11.60;;
11699;SDS011;5906;51.660;6.674;2023-04-15T03:06:42;19.00;;;12.80;;
11699;SDS011;5906;51.660;6.674;2023-04-15T03:09:09;17.70;;;11.17;;
11699;SDS011;5906;51.660;6.674;2023-04-15T03:11:36;17.40;;;10.03;;
11699;SDS011;5906;51.660;6.674;2023-04-15T03:14:05;35.53;;;19.23;;
11699;SDS011;5906;51.660;6.674;2023-04-15T03:16:32;47.70;;;26.80;;
11699;SDS011;5906;51.660;6.674;2023-04-15T03:18:59;34.53;;;20.43;;
11699;SDS011;5906;51.660;6.674;2023-04-15T03:21:26;20.33;;;13.70;;
11699;SDS011;5906;51.660;6.674;2023-04-15T03:23:53;21.30;;;11.93;;
11699;SDS011;5906;51.660;6.674;2023-04-15T03:26:29;16.67;;;10.90;;
11699;SDS011;5906;51.660;6.674;2023-04-15T03:28:57;22.77;;;13.43;;
11699;SDS011;5906;51.660;6.674;2023-04-15T03:31:24;17.00;;;10.47;;
11699;SDS011;5906;51.660;6.674;2023-04-15T03:33:51;14.00;;;8.93;;
11699;SDS011;5906;51.660;6.674;2023-04-15T03:36:18;16.93;;;10.07;;
11699;SDS011;5906;51.660;6.674;2023-04-15T03:38:44;19.63;;;9.60;;
11699;SDS011;5906;51.660;6.674;2023-04-15T03:41:11;13.40;;;9.67;;
11699;SDS011;5906;51.660;6.674;2023-04-15T03:43:38;15.50;;;10.70;;
11699;SDS011;5906;51.660;6.674;2023-04-15T03:46:04;13.43;;;9.83;;
11699;SDS011;5906;51.660;6.674;2023-04-15T03:48:31;14.00;;;8.63;;
11699;SDS011;5906;51.660;6.674;2023-04-15T03:50:58;18.83;;;12.87;;
11699;SDS011;5906;51.660;6.674;2023-04-15T03:53:25;15.97;;;10.30;;
11699;SDS011;5906;51.660;6.674;2023-04-15T03:55:52;15.83;;;10.50;;
11699;SDS011;5906;51.660;6.674;2023-04-15T03:58:18;15.20;;;11.50;;
11699;SDS011;5906;51.660;6.674;2023-04-15T04:00:45;15.60;;;10.33;;
11699;SDS011;5906;51.660;6.674;2023-04-15T04:03:12;20.73;;;11.27;;
11699;SDS011;5906;51.660;6.674;2023-04-15T04:05:39;18.00;;;12.47;;
11699;SDS011;5906;51.660;6.674;2023-04-15T04:08:06;28.30;;;15.10;;
11699;SDS011;5906;51.660;6.674;2023-04-15T04:10:33;22.13;;;12.90;;
11699;SDS011;5906;51.660;6.674;2023-04-15T04:13:00;17.37;;;11.30;;
11699;SDS011;5906;51.660;6.674;2023-04-15T04:15:27;24.93;;;13.70;;
11699;SDS011;5906;51.660;6.674;2023-04-15T04:17:53;17.17;;;11.20;;
11699;SDS011;5906;51.660;6.674;2023-04-15T04:20:21;21.57;;;14.20;;
11699;SDS011;5906;51.660;6.674;2023-04-15T04:22:48;20.30;;;12.97;;
11699;SDS011;5906;51.660;6.674;2023-04-15T04:25:15;22.80;;;12.43;;
11699;SDS011;5906;51.660;6.674;2023-04-15T04:27:42;20.20;;;13.47;;
11699;SDS011;5906;51.660;6.674;2023-04-15T04:30:10;17.57;;;11.87;;
11699;SDS011;5906;51.660;6.674;2023-04-15T04:32:37;20.40;;;12.50;;
11699;SDS011;5906;51.660;6.674;2023-04-15T04:35:04;17.80;;;12.70;;
11699;SDS011;5906;51.660;6.674;2023-04-15T04:37:32;20.87;;;12.97;;
11699;SDS011;5906;51.660;6.674;2023-04-15T04:39:59;16.07;;;12.03;;
11699;SDS011;5906;51.660;6.674;2023-04-15T04:42:26;23.50;;;13.83;;
11699;SDS011;5906;51.660;6.674;2023-04-15T04:44:52;21.10;;;13.60;;
11699;SDS011;5906;51.660;6.674;2023-04-15T04:47:19;30.33;;;15.23;;
11699;SDS011;5906;51.660;6.674;2023-04-15T04:49:47;22.80;;;15.20;;
11699;SDS011;5906;51.660;6.674;2023-04-15T04:52:13;33.43;;;16.60;;
11699;SDS011;5906;51.660;6.674;2023-04-15T04:54:40;29.00;;;15.33;;
11699;SDS011;5906;51.660;6.674;2023-04-15T04:57:07;29.73;;;15.50;;
11699;SDS011;5906;51.660;6.674;2023-04-15T04:59:33;23.83;;;12.00;;
11699;SDS011;5906;51.660;6.674;2023-04-15T05:02:00;20.47;;;11.70;;
11699;SDS011;5906;51.660;6.674;2023-04-15T05:04:28;18.03;;;11.50;;
11699;SDS011;5906;51.660;6.674;2023-04-15T05:06:56;26.30;;;13.63;;
11699;SDS011;5906;51.660;6.674;2023-04-15T05:09:24;32.97;;;15.53;;
11699;SDS011;5906;51.660;6.674;2023-04-15T05:11:51;21.77;;;13.53;;
11699;SDS011;5906;51.660;6.674;2023-04-15T05:14:18;19.80;;;13.37;;
11699;SDS011;5906;51.660;6.674;2023-04-15T05:16:48;19.33;;;13.27;;
11699;SDS011;5906;51.660;6.674;2023-04-15T05:19:14;17.50;;;11.97;;
11699;SDS011;5906;51.660;6.674;2023-04-15T05:21:41;20.70;;;12.67;;
11699;SDS011;5906;51.660;6.674;2023-04-15T05:24:08;19.63;;;11.60;;
11699;SDS011;5906;51.660;6.674;2023-04-15T05:26:35;18.27;;;11.90;;
11699;SDS011;5906;51.660;6.674;2023-04-15T05:29:02;17.30;;;12.37;;
11699;SDS011;5906;51.660;6.674;2023-04-15T05:31:29;19.37;;;12.47;;
11699;SDS011;5906;51.660;6.674;2023-04-15T05:33:56;19.37;;;13.10;;
11699;SDS011;5906;51.660;6.674;2023-04-15T05:36:22;18.80;;;12.53;;
11699;SDS011;5906;51.660;6.674;2023-04-15T05:38:49;18.37;;;11.20;;
11699;SDS011;5906;51.660;6.674;2023-04-15T05:41:16;15.73;;;12.03;;
11699;SDS011;5906;51.660;6.674;2023-04-15T05:43:45;19.10;;;12.00;;
11699;SDS011;5906;51.660;6.674;2023-04-15T05:46:12;17.33;;;12.67;;
11699;SDS011;5906;51.660;6.674;2023-04-15T05:48:38;16.20;;;11.03;;
11699;SDS011;5906;51.660;6.674;2023-04-15T05:51:06;20.77;;;12.70;;
11699;SDS011;5906;51.660;6.674;2023-04-15T05:53:33;17.93;;;11.67;;
11699;SDS011;5906;51.660;6.674;2023-04-15T05:55:59;21.00;;;12.13;;
11699;SDS011;5906;51.660;6.674;2023-04-15T05:58:26;20.23;;;12.63;;
11699;SDS011;5906;51.660;6.674;2023-04-15T06:00:53;21.47;;;11.97;;
11699;SDS011;5906;51.660;6.674;2023-04-15T06:03:20;19.23;;;11.40;;
11699;SDS011;5906;51.660;6.674;2023-04-15T06:05:48;16.10;;;11.87;;
11699;SDS011;5906;51.660;6.674;2023-04-15T06:08:15;17.57;;;11.90;;
11699;SDS011;5906;51.660;6.674;2023-04-15T06:10:42;19.07;;;10.83;;
11699;SDS011;5906;51.660;6.674;2023-04-15T06:13:09;19.53;;;12.20;;
11699;SDS011;5906;51.660;6.674;2023-04-15T06:15:36;18.70;;;12.53;;
11699;SDS011;5906;51.660;6.674;2023-04-15T06:18:03;28.20;;;13.80;;
11699;SDS011;5906;51.660;6.674;2023-04-15T06:20:30;19.93;;;13.40;;
11699;SDS011;5906;51.660;6.674;2023-04-15T06:22:56;23.63;;;14.57;;
11699;SDS011;5906;51.660;6.674;2023-04-15T06:25:23;38.20;;;19.47;;
11699;SDS011;5906;51.660;6.674;2023-04-15T06:27:50;20.33;;;12.77;;
11699;SDS011;5906;51.660;6.674;2023-04-15T06:30:16;26.03;;;15.67;;
11699;SDS011;5906;51.660;6.674;2023-04-15T06:32:43;23.00;;;14.07;;
11699;SDS011;5906;51.660;6.674;2023-04-15T06:35:10;20.60;;;12.73;;
11699;SDS011;5906;51.660;6.674;2023-04-15T06:37:37;21.00;;;13.70;;
11699;SDS011;5906;51.660;6.674;2023-04-15T06:40:04;18.30;;;13.23;;
11699;SDS011;5906;51.660;6.674;2023-04-15T06:42:32;23.43;;;12.47;;
11699;SDS011;5906;51.660;6.674;2023-04-15T06:44:59;19.87;;;12.43;;
11699;SDS011;5906;51.660;6.674;2023-04-15T06:47:26;19.20;;;13.70;;
11699;SDS011;5906;51.660;6.674;2023-04-15T06:49:53;18.93;;;12.70;;
11699;SDS011;5906;51.660;6.674;2023-04-15T06:52:19;19.10;;;13.40;;
11699;SDS011;5906;51.660;6.674;2023-04-15T06:54:46;19.40;;;12.40;;
11699;SDS011;5906;51.660;6.674;2023-04-15T06:57:13;21.27;;;11.60;;
11699;SDS011;5906;51.660;6.674;2023-04-15T06:59:39;19.57;;;11.73;;
11699;SDS011;5906;51.660;6.674;2023-04-15T07:02:08;18.17;;;11.47;;
11699;SDS011;5906;51.660;6.674;2023-04-15T07:04:38;17.70;;;11.17;;
11699;SDS011;5906;51.660;6.674;2023-04-15T07:07:06;17.20;;;11.23;;
11699;SDS011;5906;51.660;6.674;2023-04-15T07:09:33;18.73;;;11.63;;
11699;SDS011;5906;51.660;6.674;2023-04-15T07:11:59;18.87;;;11.53;;
11699;SDS011;5906;51.660;6.674;2023-04-15T07:14:26;23.40;;;11.73;;
11699;SDS011;5906;51.660;6.674;2023-04-15T07:16:53;17.77;;;10.90;;
11699;SDS011;5906;51.660;6.674;2023-04-15T07:19:20;14.80;;;9.40;;
11699;SDS011;5906;51.660;6.674;2023-04-15T07:21:46;15.10;;;10.30;;
11699;SDS011;5906;51.660;6.674;2023-04-15T07:24:13;12.67;;;9.10;;
11699;SDS011;5906;51.660;6.674;2023-04-15T07:26:43;14.00;;;10.17;;
11699;SDS011;5906;51.660;6.674;2023-04-15T07:29:10;11.47;;;8.30;;
11699;SDS011;5906;51.660;6.674;2023-04-15T07:31:38;13.17;;;8.70;;
11699;SDS011;5906;51.660;6.674;2023-04-15T07:34:06;13.80;;;8.93;;
11699;SDS011;5906;51.660;6.674;2023-04-15T07:36:33;15.13;;;9.70;;
11699;SDS011;5906;51.660;6.674;2023-04-15T07:39:00;19.20;;;10.00;;
11699;SDS011;5906;51.660;6.674;2023-04-15T07:41:29;12.50;;;7.83;;
11699;SDS011;5906;51.660;6.674;2023-04-15T07:43:56;16.30;;;8.47;;
11699;SDS011;5906;51.660;6.674;2023-04-15T07:46:24;10.30;;;8.00;;
11699;SDS011;5906;51.660;6.674;2023-04-15T07:48:52;10.67;;;7.57;;
11699;SDS011;5906;51.660;6.674;2023-04-15T07:51:19;9.97;;;6.93;;
11699;SDS011;5906;51.660;6.674;2023-04-15T07:53:47;11.97;;;7.47;;
11699;SDS011;5906;51.660;6.674;2023-04-15T07:56:15;11.17;;;7.60;;
11699;SDS011;5906;51.660;6.674;2023-04-15T07:58:42;14.33;;;9.00;;
11699;SDS011;5906;51.660;6.674;2023-04-15T08:01:09;10.37;;;7.27;;
11699;SDS011;5906;51.660;6.674;2023-04-15T08:03:37;12.27;;;7.30;;
11699;SDS011;5906;51.660;6.674;2023-04-15T08:06:05;10.07;;;7.23;;
11699;SDS011;5906;51.660;6.674;2023-04-15T08:08:31;11.37;;;7.50;;
11699;SDS011;5906;51.660;6.674;2023-04-15T08:10:58;10.97;;;6.87;;
11699;SDS011;5906;51.660;6.674;2023-04-15T08:13:25;12.53;;;7.90;;
11699;SDS011;5906;51.660;6.674;2023-04-15T08:16:12;10.67;;;6.80;;
11699;SDS011;5906;51.660;6.674;2023-04-15T08:18:48;10.80;;;7.40;;
11699;SDS011;5906;51.660;6.674;2023-04-15T08:21:16;10.50;;;6.93;;
11699;SDS011;5906;51.660;6.674;2023-04-15T08:23:44;11.20;;;7.73;;
11699;SDS011;5906;51.660;6.674;2023-04-15T08:26:12;10.03;;;6.67;;
11699;SDS011;5906;51.660;6.674;2023-04-15T08:28:40;10.10;;;6.87;;
11699;SDS011;5906;51.660;6.674;2023-04-15T08:31:08;8.17;;;5.40;;
11699;SDS011;5906;51.660;6.674;2023-04-15T08:33:35;7.43;;;5.30;;
11699;SDS011;5906;51.660;6.674;2023-04-15T08:36:03;8.30;;;5.87;;
11699;SDS011;5906;51.660;6.674;2023-04-15T08:38:31;7.70;;;5.30;;
11699;SDS011;5906;51.660;6.674;2023-04-15T08:40:59;8.50;;;5.93;;
11699;SDS011;5906;51.660;6.674;2023-04-15T08:43:33;9.23;;;6.53;;
11699;SDS011;5906;51.660;6.674;2023-04-15T08:46:01;8.80;;;6.00;;
11699;SDS011;5906;51.660;6.674;2023-04-15T08:48:31;11.40;;;6.57;;
11699;SDS011;5906;51.660;6.674;2023-04-15T08:51:00;11.80;;;6.70;;
11699;SDS011;5906;51.660;6.674;2023-04-15T08:53:28;9.03;;;6.20;;
11699;SDS011;5906;51.660;6.674;2023-04-15T08:55:56;9.83;;;6.33;;
11699;SDS011;5906;51.660;6.674;2023-04-15T08:58:25;11.87;;;7.10;;
11699;SDS011;5906;51.660;6.674;2023-04-15T09:00:52;7.50;;;5.93;;
11699;SDS011;5906;51.660;6.674;2023-04-15T09:03:21;9.97;;;6.73;;
11699;SDS011;5906;51.660;6.674;2023-04-15T09:05:50;9.93;;;6.77;;
11699;SDS011;5906;51.660;6.674;2023-04-15T09:08:18;11.17;;;6.37;;
11699;SDS011;5906;51.660;6.674;2023-04-15T09:10:45;10.00;;;6.10;;
11699;SDS011;5906;51.660;6.674;2023-04-15T09:13:12;8.20;;;6.00;;
11699;SDS011;5906;51.660;6.674;2023-04-15T09:15:40;8.07;;;6.27;;
11699;SDS011;5906;51.660;6.674;2023-04-15T09:18:07;9.80;;;6.57;;
11699;SDS011;5906;51.660;6.674;2023-04-15T09:20:39;9.03;;;5.90;;
11699;SDS011;5906;51.660;6.674;2023-04-15T09:23:10;7.73;;;6.17;;
11699;SDS011;5906;51.660;6.674;2023-04-15T09:25:39;8.90;;;6.10;;
11699;SDS011;5906;51.660;6.674;2023-04-15T09:28:08;7.00;;;5.07;;
11699;SDS011;5906;51.660;6.674;2023-04-15T09:30:38;9.03;;;6.00;;
11699;SDS011;5906;51.660;6.674;2023-04-15T09:33:13;9.83;;;6.80;;
11699;SDS011;5906;51.660;6.674;2023-04-15T09:35:40;9.20;;;6.73;;
11699;SDS011;5906;51.660;6.674;2023-04-15T09:38:08;8.47;;;5.97;;
11699;SDS011;5906;51.660;6.674;2023-04-15T09:40:39;8.93;;;6.30;;
11699;SDS011;5906;51.660;6.674;2023-04-15T09:43:08;12.50;;;6.50;;
11699;SDS011;5906;51.660;6.674;2023-04-15T09:45:38;7.03;;;5.37;;
11699;SDS011;5906;51.660;6.674;2023-04-15T09:48:22;9.07;;;5.80;;
11699;SDS011;5906;51.660;6.674;2023-04-15T09:50:56;7.80;;;5.63;;
11699;SDS011;5906;51.660;6.674;2023-04-15T09:53:24;9.40;;;6.20;;
11699;SDS011;5906;51.660;6.674;2023-04-15T09:55:52;17.30;;;8.83;;
11699;SDS011;5906;51.660;6.674;2023-04-15T09:58:24;7.90;;;5.83;;
11699;SDS011;5906;51.660;6.674;2023-04-15T10:00:58;10.90;;;7.23;;
11699;SDS011;5906;51.660;6.674;2023-04-15T10:03:28;11.43;;;7.50;;
11699;SDS011;5906;51.660;6.674;2023-04-15T10:05:58;11.80;;;6.73;;
11699;SDS011;5906;51.660;6.674;2023-04-15T10:08:27;10.13;;;6.27;;
11699;SDS011;5906;51.660;6.674;2023-04-15T10:10:56;6.60;;;5.40;;
11699;SDS011;5906;51.660;6.674;2023-04-15T10:13:24;8.97;;;6.33;;
11699;SDS011;5906;51.660;6.674;2023-04-15T10:18:41;7.50;;;5.73;;
11699;SDS011;5906;51.660;6.674;2023-04-15T10:21:10;8.30;;;6.30;;
11699;SDS011;5906;51.660;6.674;2023-04-15T10:23:39;6.53;;;5.00;;
11699;SDS011;5906;51.660;6.674;2023-04-15T10:26:06;7.60;;;5.17;;
11699;SDS011;5906;51.660;6.674;2023-04-15T10:28:35;7.57;;;4.67;;
11699;SDS011;5906;51.660;6.674;2023-04-15T10:31:02;11.70;;;5.73;;
11699;SDS011;5906;51.660;6.674;2023-04-15T10:33:31;7.40;;;5.40;;
11699;SDS011;5906;51.660;6.674;2023-04-15T10:35:59;8.20;;;5.47;;
11699;SDS011;5906;51.660;6.674;2023-04-15T10:38:30;6.33;;;4.93;;
11699;SDS011;5906;51.660;6.674;2023-04-15T10:44:01;6.10;;;4.77;;
11699;SDS011;5906;51.660;6.674;2023-04-15T10:49:08;7.97;;;5.60;;
11699;SDS011;5906;51.660;6.674;2023-04-15T10:51:51;8.03;;;5.50;;
11699;SDS011;5906;51.660;6.674;2023-04-15T10:57:15;6.83;;;4.70;;
11699;SDS011;5906;51.660;6.674;2023-04-15T11:02:41;5.50;;;4.27;;
11699;SDS011;5906;51.660;6.674;2023-04-15T11:05:14;6.07;;;4.47;;
11699;SDS011;5906;51.660;6.674;2023-04-15T11:12:39;7.60;;;5.33;;
11699;SDS011;5906;51.660;6.674;2023-04-15T11:18:01;9.77;;;5.00;;
11699;SDS011;5906;51.660;6.674;2023-04-15T11:20:39;6.10;;;4.20;;
11699;SDS011;5906;51.660;6.674;2023-04-15T11:23:08;6.40;;;4.80;;
11699;SDS011;5906;51.660;6.674;2023-04-15T11:25:41;4.67;;;3.57;;
11699;SDS011;5906;51.660;6.674;2023-04-15T11:28:11;5.00;;;4.03;;
11699;SDS011;5906;51.660;6.674;2023-04-15T11:30:38;6.67;;;4.87;;
11699;SDS011;5906;51.660;6.674;2023-04-15T11:33:08;5.87;;;4.50;;
11699;SDS011;5906;51.660;6.674;2023-04-15T11:35:39;6.20;;;4.43;;
11699;SDS011;5906;51.660;6.674;2023-04-15T11:38:07;6.93;;;4.70;;
11699;SDS011;5906;51.660;6.674;2023-04-15T11:40:39;5.00;;;4.50;;
11699;SDS011;5906;51.660;6.674;2023-04-15T11:43:12;5.90;;;4.67;;
11699;SDS011;5906;51.660;6.674;2023-04-15T11:45:53;6.83;;;4.37;;
11699;SDS011;5906;51.660;6.674;2023-04-15T11:48:25;6.37;;;4.87;;
11699;SDS011;5906;51.660;6.674;2023-04-15T11:51:05;5.27;;;4.30;;
11699;SDS011;5906;51.660;6.674;2023-04-15T11:56:02;8.40;;;3.80;;
11699;SDS011;5906;51.660;6.674;2023-04-15T11:58:30;5.80;;;3.97;;
11699;SDS011;5906;51.660;6.674;2023-04-15T12:01:01;5.07;;;4.00;;
11699;SDS011;5906;51.660;6.674;2023-04-15T12:03:29;6.07;;;4.03;;
11699;SDS011;5906;51.660;6.674;2023-04-15T12:11:36;4.83;;;3.90;;
11699;SDS011;5906;51.660;6.674;2023-04-15T12:16:49;5.10;;;3.93;;
11699;SDS011;5906;51.660;6.674;2023-04-15T12:24:34;4.17;;;3.73;;
11699;SDS011;5906;51.660;6.674;2023-04-15T12:27:03;4.43;;;3.43;;
11699;SDS011;5906;51.660;6.674;2023-04-15T12:29:31;3.67;;;3.30;;
11699;SDS011;5906;51.660;6.674;2023-04-15T12:34:40;5.07;;;3.23;;
11699;SDS011;5906;51.660;6.674;2023-04-15T12:37:15;4.43;;;3.80;;
11699;SDS011;5906;51.660;6.674;2023-04-15T12:39:43;3.60;;;3.30;;
11699;SDS011;5906;51.660;6.674;2023-04-15T12:42:14;6.07;;;3.20;;
11699;SDS011;5906;51.660;6.674;2023-04-15T12:44:42;4.50;;;3.30;;
11699;SDS011;5906;51.660;6.674;2023-04-15T12:47:10;3.60;;;3.03;;
11699;SDS011;5906;51.660;6.674;2023-04-15T12:49:37;3.50;;;3.20;;
11699;SDS011;5906;51.660;6.674;2023-04-15T12:52:05;4.07;;;3.47;;
11699;SDS011;5906;51.660;6.674;2023-04-15T12:54:32;5.33;;;3.17;;
11699;SDS011;5906;51.660;6.674;2023-04-15T12:57:01;4.00;;;3.03;;
11699;SDS011;5906;51.660;6.674;2023-04-15T12:59:32;4.27;;;3.50;;
11699;SDS011;5906;51.660;6.674;2023-04-15T13:01:59;4.60;;;3.43;;
11699;SDS011;5906;51.660;6.674;2023-04-15T13:04:28;5.57;;;4.00;;
11699;SDS011;5906;51.660;6.674;2023-04-15T13:06:56;8.73;;;5.30;;
11699;SDS011;5906;51.660;6.674;2023-04-15T13:09:23;6.03;;;4.27;;
11699;SDS011;5906;51.660;6.674;2023-04-15T13:11:51;6.10;;;4.20;;
11699;SDS011;5906;51.660;6.674;2023-04-15T13:14:18;4.57;;;3.57;;
11699;SDS011;5906;51.660;6.674;2023-04-15T13:16:45;4.13;;;3.43;;
11699;SDS011;5906;51.660;6.674;2023-04-15T13:19:12;7.00;;;3.97;;
11699;SDS011;5906;51.660;6.674;2023-04-15T13:21:39;5.53;;;3.90;;
11699;SDS011;5906;51.660;6.674;2023-04-15T13:24:06;3.90;;;3.10;;
11699;SDS011;5906;51.660;6.674;2023-04-15T13:26:34;4.83;;;3.77;;
11699;SDS011;5906;51.660;6.674;2023-04-15T13:29:03;3.40;;;3.10;;
11699;SDS011;5906;51.660;6.674;2023-04-15T13:31:30;5.77;;;3.10;;
11699;SDS011;5906;51.660;6.674;2023-04-15T13:33:57;6.00;;;4.30;;
11699;SDS011;5906;51.660;6.674;2023-04-15T13:36:24;3.70;;;2.67;;
11699;SDS011;5906;51.660;6.674;2023-04-15T13:38:52;5.30;;;3.33;;
11699;SDS011;5906;51.660;6.674;2023-04-15T13:41:19;5.50;;;3.33;;
11699;SDS011;5906;51.660;6.674;2023-04-15T13:43:46;4.10;;;3.10;;
11699;SDS011;5906;51.660;6.674;2023-04-15T13:46:13;4.50;;;3.30;;
11699;SDS011;5906;51.660;6.674;2023-04-15T13:48:40;4.60;;;3.23;;
11699;SDS011;5906;51.660;6.674;2023-04-15T13:51:07;3.67;;;3.00;;
11699;SDS011;5906;51.660;6.674;2023-04-15T13:53:34;3.80;;;3.43;;
11699;SDS011;5906;51.660;6.674;2023-04-15T13:56:07;4.00;;;3.20;;
11699;SDS011;5906;51.660;6.674;2023-04-15T13:58:35;3.57;;;3.27;;
11699;SDS011;5906;51.660;6.674;2023-04-15T14:01:04;5.47;;;3.50;;
11699;SDS011;5906;51.660;6.674;2023-04-15T14:03:35;4.57;;;3.13;;
11699;SDS011;5906;51.660;6.674;2023-04-15T14:06:03;4.03;;;3.33;;
11699;SDS011;5906;51.660;6.674;2023-04-15T14:08:31;3.77;;;3.20;;
11699;SDS011;5906;51.660;6.674;2023-04-15T14:10:58;5.80;;;3.07;;
11699;SDS011;5906;51.660;6.674;2023-04-15T14:13:26;4.13;;;2.90;;
11699;SDS011;5906;51.660;6.674;2023-04-15T14:15:53;3.63;;;2.83;;
11699;SDS011;5906;51.660;6.674;2023-04-15T14:18:20;3.90;;;3.10;;
11699;SDS011;5906;51.660;6.674;2023-04-15T14:20:47;4.47;;;3.33;;
11699;SDS011;5906;51.660;6.674;2023-04-15T14:23:14;4.13;;;3.30;;
11699;SDS011;5906;51.660;6.674;2023-04-15T14:25:41;4.33;;;2.90;;
11699;SDS011;5906;51.660;6.674;2023-04-15T14:28:10;6.37;;;3.57;;
11699;SDS011;5906;51.660;6.674;2023-04-15T14:30:37;7.50;;;3.50;;
11699;SDS011;5906;51.660;6.674;2023-04-15T14:33:04;5.10;;;4.60;;
11699;SDS011;5906;51.660;6.674;2023-04-15T14:35:32;6.50;;;3.63;;
11699;SDS011;5906;51.660;6.674;2023-04-15T14:37:59;6.80;;;3.57;;
11699;SDS011;5906;51.660;6.674;2023-04-15T14:40:26;3.47;;;2.97;;
11699;SDS011;5906;51.660;6.674;2023-04-15T14:42:53;4.50;;;3.50;;
11699;SDS011;5906;51.660;6.674;2023-04-15T14:45:19;6.30;;;3.30;;
11699;SDS011;5906;51.660;6.674;2023-04-15T14:47:46;4.40;;;3.00;;
11699;SDS011;5906;51.660;6.674;2023-04-15T14:50:14;4.53;;;3.20;;
11699;SDS011;5906;51.660;6.674;2023-04-15T14:52:42;5.63;;;2.90;;
11699;SDS011;5906;51.660;6.674;2023-04-15T14:55:10;3.60;;;3.13;;
11699;SDS011;5906;51.660;6.674;2023-04-15T14:57:38;5.93;;;3.00;;
11699;SDS011;5906;51.660;6.674;2023-04-15T15:00:07;3.80;;;3.40;;
11699;SDS011;5906;51.660;6.674;2023-04-15T15:02:36;6.70;;;3.03;;
11699;SDS011;5906;51.660;6.674;2023-04-15T15:05:06;4.30;;;3.80;;
11699;SDS011;5906;51.660;6.674;2023-04-15T15:07:34;8.03;;;3.20;;
11699;SDS011;5906;51.660;6.674;2023-04-15T15:10:02;3.70;;;2.87;;
11699;SDS011;5906;51.660;6.674;2023-04-15T15:12:29;5.50;;;3.33;;
11699;SDS011;5906;51.660;6.674;2023-04-15T15:14:57;3.60;;;3.03;;
11699;SDS011;5906;51.660;6.674;2023-04-15T15:17:23;4.73;;;2.63;;
11699;SDS011;5906;51.660;6.674;2023-04-15T15:19:50;6.10;;;3.20;;
11699;SDS011;5906;51.660;6.674;2023-04-15T15:22:17;6.67;;;3.37;;
11699;SDS011;5906;51.660;6.674;2023-04-15T15:24:46;4.00;;;3.17;;
11699;SDS011;5906;51.660;6.674;2023-04-15T15:27:14;4.40;;;3.30;;
11699;SDS011;5906;51.660;6.674;2023-04-15T15:29:40;7.47;;;3.60;;
11699;SDS011;5906;51.660;6.674;2023-04-15T15:32:07;4.40;;;4.00;;
11699;SDS011;5906;51.660;6.674;2023-04-15T15:34:35;5.93;;;3.40;;